Thunder radar more information blitzortung!


Radar de pluja more information rain snow radar


Visita la nostra xarxa de llocs de meteo:

Template documentation
and downloads

And another site



No particular awareness of the weather is required.    There are no Weather-warnings

Pagina Historial Weather Underground text

Diari Resum Setembre 30, 2017 Unitats:  Tant    Imperial   Mètric
« Previous Dia
SegĂźent Dia »
Diari Setmana Mensual Anual Personalitzada
  Maxima: Minima: Media:
Temperatura: 76.5 °F /  24.7 °C 56.3 °F /  13.5 °C 66.9 °F /  19.4 °C
Punt de rosada: 62.4 °F /  16.9 °C 52.5 °F /  11.4 °C 58.1 °F /  14.5 °C
Humitat: 89 % 53 % 74 %
Wind Speed: 9.2 mph /  14.8 km/h - 2.4 mph /  3.8 km/h
RĂ fegues de vent: 9.2 mph /  14.8 km/h - -
Vent:- - South
Pression baro: 30.2 in /  1022.9 hPa 30.1 in /  1018.8 hPa -
Precipitacions: 0 in /  0.0 mm    
Historical Graphs
 
 
Dades de taula per Setembre 30, 2017
Temps Temperatura Punt de rosada Pression baro Vent Wind Speed RĂ fegues de vent Humitat Rainfall Rate (Hourly)
00:00 59.5 °F /  15.3 °C 55.2 °F /  12.9 °C 30.2 in /  1021.9 hPa SW 1 mph /  1.6 km/h 3 mph /  4.8 km/h 86 % 0 in /  0.0 mm
00:02 64.8 °F /  18.2 °C 57.7 °F /  14.3 °C 30.2 in /  1022.9 hPa West 2.3 mph /  3.7 km/h 2.3 mph /  3.7 km/h 78 % 0 in /  0.0 mm
00:07 64.8 °F /  18.2 °C 58.1 °F /  14.5 °C 30.2 in /  1022.9 hPa WSW 2.3 mph /  3.7 km/h 2.3 mph /  3.7 km/h 79 % 0 in /  0.0 mm
00:10 59.5 °F /  15.3 °C 55.2 °F /  12.9 °C 30.2 in /  1021.9 hPa Calm     86 % 0 in /  0.0 mm
00:12 64.6 °F /  18.1 °C 57.9 °F /  14.4 °C 30.2 in /  1022.9 hPa SW 1.2 mph /  1.9 km/h   79 % 0 in /  0.0 mm
00:20 59.5 °F /  15.3 °C 55.8 °F /  13.2 °C 30.2 in /  1021.9 hPa Calm   1 mph /  1.6 km/h 87 % 0 in /  0.0 mm
00:30 59 °F /  15.0 °C 55 °F /  12.8 °C 30.2 in /  1021.9 hPa Calm   1 mph /  1.6 km/h 87 % 0 in /  0.0 mm
00:40 58.8 °F /  14.9 °C 55 °F /  12.8 °C 30.2 in /  1020.9 hPa Calm   1 mph /  1.6 km/h 87 % 0 in /  0.0 mm
00:50 58.6 °F /  14.8 °C 54.9 °F /  12.7 °C 30.2 in /  1020.9 hPa Calm     87 % 0 in /  0.0 mm
01:00 58.5 °F /  14.7 °C 54.7 °F /  12.6 °C 30.2 in /  1021.9 hPa Calm     87 % 0 in /  0.0 mm
01:10 57.9 °F /  14.4 °C 53.8 °F /  12.1 °C 30.2 in /  1021.9 hPa North 1 mph /  1.6 km/h 2 mph /  3.2 km/h 86 % 0 in /  0.0 mm
01:20 57.9 °F /  14.4 °C 54.1 °F /  12.3 °C 30.2 in /  1021.9 hPa Calm   1 mph /  1.6 km/h 87 % 0 in /  0.0 mm
01:30 58.1 °F /  14.5 °C 54.1 °F /  12.3 °C 30.2 in /  1020.9 hPa Calm   1 mph /  1.6 km/h 87 % 0 in /  0.0 mm
01:40 58.3 °F /  14.6 °C 54.7 °F /  12.6 °C 30.2 in /  1021.9 hPa Calm     88 % 0 in /  0.0 mm
01:50 57.6 °F /  14.2 °C 53.8 °F /  12.1 °C 30.2 in /  1021.9 hPa SW 1 mph /  1.6 km/h 2 mph /  3.2 km/h 87 % 0 in /  0.0 mm
02:00 57 °F /  13.9 °C 53.2 °F /  11.8 °C 30.2 in /  1021.9 hPa Calm   1 mph /  1.6 km/h 87 % 0 in /  0.0 mm
02:20 56.7 °F /  13.7 °C 52.5 °F /  11.4 °C 30.2 in /  1021.9 hPa SW 2 mph /  3.2 km/h 2 mph /  3.2 km/h 86 % 0 in /  0.0 mm
02:30 56.5 °F /  13.6 °C 52.7 °F /  11.5 °C 30.2 in /  1021.9 hPa Calm   3 mph /  4.8 km/h 87 % 0 in /  0.0 mm
02:40 56.5 °F /  13.6 °C 52.7 °F /  11.5 °C 30.2 in /  1021.9 hPa WSW 1 mph /  1.6 km/h 1 mph /  1.6 km/h 87 % 0 in /  0.0 mm
02:50 56.3 °F /  13.5 °C 52.5 °F /  11.4 °C 30.2 in /  1021.9 hPa SW 2 mph /  3.2 km/h 2 mph /  3.2 km/h 87 % 0 in /  0.0 mm
03:00 56.7 °F /  13.7 °C 53.1 °F /  11.7 °C 30.2 in /  1021.9 hPa Calm   2 mph /  3.2 km/h 88 % 0 in /  0.0 mm
03:10 56.5 °F /  13.6 °C 53.1 °F /  11.7 °C 30.2 in /  1021.9 hPa WSW 1 mph /  1.6 km/h   88 % 0 in /  0.0 mm
03:20 56.5 °F /  13.6 °C 53.1 °F /  11.7 °C 30.2 in /  1021.9 hPa WSW 1 mph /  1.6 km/h 1 mph /  1.6 km/h 88 % 0 in /  0.0 mm
03:30 57 °F /  13.9 °C 53.8 °F /  12.1 °C 30.2 in /  1021.9 hPa Calm     89 % 0 in /  0.0 mm
03:40 57.2 °F /  14.0 °C 53.8 °F /  12.1 °C 30.2 in /  1021.9 hPa SW 1 mph /  1.6 km/h 2 mph /  3.2 km/h 88 % 0 in /  0.0 mm
03:50 57.4 °F /  14.1 °C 54 °F /  12.2 °C 30.2 in /  1021.9 hPa SW 2 mph /  3.2 km/h 2 mph /  3.2 km/h 88 % 0 in /  0.0 mm
04:00 57.6 °F /  14.2 °C 54 °F /  12.2 °C 30.2 in /  1021.9 hPa SW 1 mph /  1.6 km/h 2 mph /  3.2 km/h 88 % 0 in /  0.0 mm
04:10 58.3 °F /  14.6 °C 54.7 °F /  12.6 °C 30.2 in /  1021.9 hPa SW 1 mph /  1.6 km/h 2 mph /  3.2 km/h 88 % 0 in /  0.0 mm
04:20 59.5 °F /  15.3 °C 56.3 °F /  13.5 °C 30.2 in /  1021.9 hPa Calm     89 % 0 in /  0.0 mm
04:30 59.9 °F /  15.5 °C 56.3 °F /  13.5 °C 30.2 in /  1021.9 hPa Calm   1 mph /  1.6 km/h 88 % 0 in /  0.0 mm
04:40 61.2 °F /  16.2 °C 57.4 °F /  14.1 °C 30.2 in /  1021.9 hPa SW 2 mph /  3.2 km/h 2 mph /  3.2 km/h 87 % 0 in /  0.0 mm
04:50 61.9 °F /  16.6 °C 57.9 °F /  14.4 °C 30.2 in /  1021.9 hPa SW 1 mph /  1.6 km/h 2 mph /  3.2 km/h 87 % 0 in /  0.0 mm
05:00 62.6 °F /  17.0 °C 57.9 °F /  14.4 °C 30.2 in /  1021.9 hPa SSW 1 mph /  1.6 km/h 3 mph /  4.8 km/h 85 % 0 in /  0.0 mm
05:10 63 °F /  17.2 °C 57.9 °F /  14.4 °C 30.2 in /  1021.9 hPa SSW 1 mph /  1.6 km/h 2 mph /  3.2 km/h 84 % 0 in /  0.0 mm
05:20 63.5 °F /  17.5 °C 58.6 °F /  14.8 °C 30.2 in /  1021.9 hPa Calm   1 mph /  1.6 km/h 84 % 0 in /  0.0 mm
05:30 64.9 °F /  18.3 °C 59.4 °F /  15.2 °C 30.2 in /  1021.9 hPa West 1 mph /  1.6 km/h 2 mph /  3.2 km/h 82 % 0 in /  0.0 mm
05:40 66 °F /  18.9 °C 60.1 °F /  15.6 °C 30.2 in /  1021.9 hPa Calm   2 mph /  3.2 km/h 81 % 0 in /  0.0 mm
05:50 66 °F /  18.9 °C 59.7 °F /  15.4 °C 30.2 in /  1021.9 hPa Calm   3 mph /  4.8 km/h 80 % 0 in /  0.0 mm
06:00 66.2 °F /  19.0 °C 59.2 °F /  15.1 °C 30.2 in /  1021.9 hPa NE 1 mph /  1.6 km/h 3 mph /  4.8 km/h 78 % 0 in /  0.0 mm
06:10 67.6 °F /  19.8 °C 60.4 °F /  15.8 °C 30.2 in /  1021.9 hPa Calm   2 mph /  3.2 km/h 78 % 0 in /  0.0 mm
11:10 68.2 °F /  20.1 °C 60.6 °F /  15.9 °C 30.2 in /  1021.9 hPa SW 1.4 mph /  2.3 km/h 2.2 mph /  3.5 km/h 77 % 0 in /  0.0 mm
11:15 68.5 °F /  20.3 °C 60.6 °F /  15.9 °C 30.2 in /  1021.9 hPa SW 2.3 mph /  3.7 km/h 2.3 mph /  3.7 km/h 76 % 0 in /  0.0 mm
11:20 68.9 °F /  20.5 °C 61 °F /  16.1 °C 30.2 in /  1021.9 hPa SW 4.7 mph /  7.6 km/h 4.7 mph /  7.6 km/h 76 % 0 in /  0.0 mm
11:25 69.1 °F /  20.6 °C 61.2 °F /  16.2 °C 30.2 in /  1021.9 hPa South 3.6 mph /  5.8 km/h 3.6 mph /  5.8 km/h 76 % 0 in /  0.0 mm
11:30 69.6 °F /  20.9 °C 61.7 °F /  16.5 °C 30.2 in /  1020.9 hPa SSW 3.5 mph /  5.6 km/h 3.5 mph /  5.6 km/h 76 % 0 in /  0.0 mm
11:35 70 °F /  21.1 °C 61.7 °F /  16.5 °C 30.2 in /  1020.9 hPa WSW 2.3 mph /  3.7 km/h 2.4 mph /  3.9 km/h 75 % 0 in /  0.0 mm
11:40 69.8 °F /  21.0 °C 61.2 °F /  16.2 °C 30.2 in /  1020.9 hPa West 8.1 mph /  13.0 km/h 8.1 mph /  13.0 km/h 74 % 0 in /  0.0 mm
11:45 70 °F /  21.1 °C 61.3 °F /  16.3 °C 30.2 in /  1020.9 hPa West 6 mph /  9.7 km/h 6 mph /  9.7 km/h 74 % 0 in /  0.0 mm
11:50 70.2 °F /  21.2 °C 61.5 °F /  16.4 °C 30.2 in /  1020.9 hPa SSW 3.5 mph /  5.6 km/h 3.5 mph /  5.6 km/h 74 % 0 in /  0.0 mm
11:55 71.1 °F /  21.7 °C 62.1 °F /  16.7 °C 30.2 in /  1020.9 hPa West 4.6 mph /  7.4 km/h 4.6 mph /  7.4 km/h 73 % 0 in /  0.0 mm
12:00 71.1 °F /  21.7 °C 62.1 °F /  16.7 °C 30.2 in /  1020.9 hPa West 7.1 mph /  11.4 km/h 7.1 mph /  11.4 km/h 73 % 0 in /  0.0 mm
12:05 71.1 °F /  21.7 °C 61.5 °F /  16.4 °C 30.2 in /  1020.9 hPa SW 4.6 mph /  7.4 km/h 4.6 mph /  7.4 km/h 72 % 0 in /  0.0 mm
12:10 71.1 °F /  21.7 °C 61.2 °F /  16.2 °C 30.2 in /  1020.9 hPa SSW 4.6 mph /  7.4 km/h 4.6 mph /  7.4 km/h 71 % 0 in /  0.0 mm
12:15 71.4 °F /  21.9 °C 61.5 °F /  16.4 °C 30.2 in /  1020.9 hPa SW 3.5 mph /  5.6 km/h 3.5 mph /  5.6 km/h 71 % 0 in /  0.0 mm
12:20 72.3 °F /  22.4 °C 62.1 °F /  16.7 °C 30.2 in /  1020.9 hPa SSE 4.6 mph /  7.4 km/h 4.6 mph /  7.4 km/h 70 % 0 in /  0.0 mm
12:25 73 °F /  22.8 °C 62.2 °F /  16.8 °C 30.2 in /  1020.9 hPa WSW 6.9 mph /  11.1 km/h 6.9 mph /  11.1 km/h 69 % 0 in /  0.0 mm
12:30 73.4 °F /  23.0 °C 62.2 °F /  16.8 °C 30.2 in /  1020.9 hPa WSW 4.6 mph /  7.4 km/h 4.6 mph /  7.4 km/h 68 % 0 in /  0.0 mm
12:35 73.4 °F /  23.0 °C 62.2 °F /  16.8 °C 30.2 in /  1020.9 hPa WSW 4.6 mph /  7.4 km/h 4.6 mph /  7.4 km/h 68 % 0 in /  0.0 mm
12:40 73.8 °F /  23.2 °C 62.4 °F /  16.9 °C 30.2 in /  1020.9 hPa West 3.5 mph /  5.6 km/h 3.5 mph /  5.6 km/h 68 % 0 in /  0.0 mm
12:45 73.9 °F /  23.3 °C 61.9 °F /  16.6 °C 30.1 in /  1019.9 hPa SSW 3.6 mph /  5.8 km/h 3.6 mph /  5.8 km/h 66 % 0 in /  0.0 mm
12:50 73.8 °F /  23.2 °C 61.3 °F /  16.3 °C 30.1 in /  1019.9 hPa SW 5.8 mph /  9.3 km/h 5.8 mph /  9.3 km/h 65 % 0 in /  0.0 mm
13:00 74.7 °F /  23.7 °C 61.7 °F /  16.5 °C 30.1 in /  1019.9 hPa WSW 2.6 mph /  4.2 km/h 2.6 mph /  4.2 km/h 64 % 0 in /  0.0 mm
13:05 75.2 °F /  24.0 °C 61.7 °F /  16.5 °C 30.1 in /  1019.9 hPa SW 6.2 mph /  10.0 km/h 6.2 mph /  10.0 km/h 63 % 0 in /  0.0 mm
13:10 75.6 °F /  24.2 °C 61.5 °F /  16.4 °C 30.1 in /  1019.9 hPa WSW 3.8 mph /  6.1 km/h 4 mph /  6.4 km/h 62 % 0 in /  0.0 mm
13:15 75.7 °F /  24.3 °C 61 °F /  16.1 °C 30.1 in /  1019.9 hPa SW 5.4 mph /  8.7 km/h 5.4 mph /  8.7 km/h 60 % 0 in /  0.0 mm
13:20 75.9 °F /  24.4 °C 61.5 °F /  16.4 °C 30.1 in /  1019.9 hPa SSW 5.8 mph /  9.3 km/h 5.8 mph /  9.3 km/h 61 % 0 in /  0.0 mm
13:25 76.5 °F /  24.7 °C 61.5 °F /  16.4 °C 30.1 in /  1019.9 hPa WSW 4.9 mph /  7.9 km/h 4.9 mph /  7.9 km/h 60 % 0 in /  0.0 mm
13:30 76.1 °F /  24.5 °C 60.6 °F /  15.9 °C 30.1 in /  1018.8 hPa SW 3.8 mph /  6.1 km/h 3.8 mph /  6.1 km/h 59 % 0 in /  0.0 mm
13:35 76.3 °F /  24.6 °C 61 °F /  16.1 °C 30.1 in /  1018.8 hPa WSW 4.7 mph /  7.6 km/h 4.7 mph /  7.6 km/h 59 % 0 in /  0.0 mm
13:40 76.3 °F /  24.6 °C 60.4 °F /  15.8 °C 30.1 in /  1018.8 hPa SSW 4.6 mph /  7.4 km/h 4.6 mph /  7.4 km/h 58 % 0 in /  0.0 mm
13:45 76.5 °F /  24.7 °C 61.2 °F /  16.2 °C 30.1 in /  1019.9 hPa SSW 6.2 mph /  10.0 km/h 6.2 mph /  10.0 km/h 59 % 0 in /  0.0 mm
13:50 76.3 °F /  24.6 °C 59.9 °F /  15.5 °C 30.1 in /  1019.9 hPa SW 6.9 mph /  11.1 km/h 6.9 mph /  11.1 km/h 57 % 0 in /  0.0 mm
13:55 76.1 °F /  24.5 °C 60.3 °F /  15.7 °C 30.1 in /  1019.9 hPa WSW 9.2 mph /  14.8 km/h 9.2 mph /  14.8 km/h 58 % 0 in /  0.0 mm
14:00 76.1 °F /  24.5 °C 60.3 °F /  15.7 °C 30.1 in /  1018.8 hPa WSW 5.9 mph /  9.5 km/h 5.9 mph /  9.5 km/h 58 % 0 in /  0.0 mm
14:05 75.9 °F /  24.4 °C 59.2 °F /  15.1 °C 30.1 in /  1018.8 hPa SW 6.9 mph /  11.1 km/h 6.9 mph /  11.1 km/h 56 % 0 in /  0.0 mm
14:10 75.9 °F /  24.4 °C 59.2 °F /  15.1 °C 30.1 in /  1018.8 hPa WSW 4.6 mph /  7.4 km/h 4.6 mph /  7.4 km/h 56 % 0 in /  0.0 mm
14:15 75.9 °F /  24.4 °C 59.2 °F /  15.1 °C 30.1 in /  1018.8 hPa SW 4.6 mph /  7.4 km/h 4.6 mph /  7.4 km/h 56 % 0 in /  0.0 mm
14:20 76.1 °F /  24.5 °C 59.7 °F /  15.4 °C 30.1 in /  1018.8 hPa WSW 4.6 mph /  7.4 km/h 4.6 mph /  7.4 km/h 57 % 0 in /  0.0 mm
14:25 76.3 °F /  24.6 °C 59.9 °F /  15.5 °C 30.1 in /  1018.8 hPa SW 4.6 mph /  7.4 km/h 4.6 mph /  7.4 km/h 57 % 0 in /  0.0 mm
14:30 76.3 °F /  24.6 °C 59.4 °F /  15.2 °C 30.1 in /  1018.8 hPa South 6.9 mph /  11.1 km/h 6.9 mph /  11.1 km/h 56 % 0 in /  0.0 mm
14:35 76.5 °F /  24.7 °C 59.5 °F /  15.3 °C 30.1 in /  1018.8 hPa SSW 6.9 mph /  11.1 km/h 6.9 mph /  11.1 km/h 56 % 0 in /  0.0 mm
14:41 76.5 °F /  24.7 °C 59.5 °F /  15.3 °C 30.1 in /  1018.8 hPa WSW 6.9 mph /  11.1 km/h 6.9 mph /  11.1 km/h 56 % 0 in /  0.0 mm
14:46 76.5 °F /  24.7 °C 59.5 °F /  15.3 °C 30.1 in /  1019.9 hPa SW 2.3 mph /  3.7 km/h 2.3 mph /  3.7 km/h 56 % 0 in /  0.0 mm
14:51 76.3 °F /  24.6 °C 59.4 °F /  15.2 °C 30.1 in /  1019.9 hPa South 3.5 mph /  5.6 km/h 3.5 mph /  5.6 km/h 56 % 0 in /  0.0 mm
14:56 76.3 °F /  24.6 °C 59.9 °F /  15.5 °C 30.1 in /  1019.9 hPa SSW 4.6 mph /  7.4 km/h 4.6 mph /  7.4 km/h 57 % 0 in /  0.0 mm
15:01 76.1 °F /  24.5 °C 59.7 °F /  15.4 °C 30.1 in /  1019.9 hPa SSW 3.5 mph /  5.6 km/h 3.5 mph /  5.6 km/h 57 % 0 in /  0.0 mm
15:06 75.7 °F /  24.3 °C 59.4 °F /  15.2 °C 30.1 in /  1019.9 hPa SW 4.6 mph /  7.4 km/h 4.6 mph /  7.4 km/h 57 % 0 in /  0.0 mm
15:11 75.7 °F /  24.3 °C 59.4 °F /  15.2 °C 30.1 in /  1019.9 hPa WSW 4 mph /  6.4 km/h 4 mph /  6.4 km/h 57 % 0 in /  0.0 mm
15:16 75.6 °F /  24.2 °C 59.7 °F /  15.4 °C 30.1 in /  1019.9 hPa SW 4.7 mph /  7.6 km/h 4.7 mph /  7.6 km/h 58 % 0 in /  0.0 mm
15:21 75.4 °F /  24.1 °C 59.5 °F /  15.3 °C 30.1 in /  1019.9 hPa SW 3.5 mph /  5.6 km/h 3.5 mph /  5.6 km/h 58 % 0 in /  0.0 mm
15:26 75 °F /  23.9 °C 60.3 °F /  15.7 °C 30.1 in /  1019.9 hPa SW 5.8 mph /  9.3 km/h 5.8 mph /  9.3 km/h 60 % 0 in /  0.0 mm
15:31 74.8 °F /  23.8 °C 60.1 °F /  15.6 °C 30.1 in /  1019.9 hPa SSW 3.5 mph /  5.6 km/h 3.5 mph /  5.6 km/h 60 % 0 in /  0.0 mm
15:36 74.8 °F /  23.8 °C 60.1 °F /  15.6 °C 30.1 in /  1019.9 hPa SW 4.6 mph /  7.4 km/h 4.6 mph /  7.4 km/h 60 % 0 in /  0.0 mm
15:41 75 °F /  23.9 °C 60.3 °F /  15.7 °C 30.1 in /  1019.9 hPa SW 3.5 mph /  5.6 km/h 3.5 mph /  5.6 km/h 60 % 0 in /  0.0 mm
15:46 75 °F /  23.9 °C 60.3 °F /  15.7 °C 30.1 in /  1019.9 hPa South 5.8 mph /  9.3 km/h 5.8 mph /  9.3 km/h 60 % 0 in /  0.0 mm
15:51 75.4 °F /  24.1 °C 60.1 °F /  15.6 °C 30.1 in /  1019.9 hPa SW 2 mph /  3.2 km/h 2 mph /  3.2 km/h 59 % 0 in /  0.0 mm
15:56 75.6 °F /  24.2 °C 60.3 °F /  15.7 °C 30.1 in /  1019.9 hPa SSW 1.6 mph /  2.6 km/h 1.6 mph /  2.6 km/h 59 % 0 in /  0.0 mm
16:01 75.6 °F /  24.2 °C 58.8 °F /  14.9 °C 30.1 in /  1019.9 hPa WSW 2.3 mph /  3.7 km/h 2.3 mph /  3.7 km/h 56 % 0 in /  0.0 mm
16:06 75.7 °F /  24.3 °C 58.5 °F /  14.7 °C 30.1 in /  1019.9 hPa WSW 2.3 mph /  3.7 km/h 2.3 mph /  3.7 km/h 55 % 0 in /  0.0 mm
16:11 75.7 °F /  24.3 °C 57.9 °F /  14.4 °C 30.1 in /  1019.9 hPa WNW 1.2 mph /  1.9 km/h   54 % 0 in /  0.0 mm
16:16 75.7 °F /  24.3 °C 57.4 °F /  14.1 °C 30.1 in /  1019.9 hPa ENE 1.4 mph /  2.3 km/h 1.4 mph /  2.3 km/h 53 % 0 in /  0.0 mm
16:21 75.2 °F /  24.0 °C 57.4 °F /  14.1 °C 30.1 in /  1019.9 hPa NE 4.6 mph /  7.4 km/h 4.6 mph /  7.4 km/h 54 % 0 in /  0.0 mm
16:26 75 °F /  23.9 °C 58.3 °F /  14.6 °C 30.1 in /  1019.9 hPa NNE 5.4 mph /  8.7 km/h 5.4 mph /  8.7 km/h 56 % 0 in /  0.0 mm
16:31 74.5 °F /  23.6 °C 56.7 °F /  13.7 °C 30.1 in /  1019.9 hPa NNE 9.2 mph /  14.8 km/h 9.2 mph /  14.8 km/h 54 % 0 in /  0.0 mm
16:36 74.1 °F /  23.4 °C 55.9 °F /  13.3 °C 30.1 in /  1019.9 hPa North 6.4 mph /  10.3 km/h 6.4 mph /  10.3 km/h 53 % 0 in /  0.0 mm
16:41 73.6 °F /  23.1 °C 55.9 °F /  13.3 °C 30.1 in /  1019.9 hPa ENE 4.3 mph /  6.9 km/h 4.3 mph /  6.9 km/h 54 % 0 in /  0.0 mm
16:46 72.9 °F /  22.7 °C 55.8 °F /  13.2 °C 30.1 in /  1019.9 hPa WNW 3.5 mph /  5.6 km/h 3.5 mph /  5.6 km/h 55 % 0 in /  0.0 mm
16:51 72.3 °F /  22.4 °C 56.1 °F /  13.4 °C 30.1 in /  1019.9 hPa NNW 2.6 mph /  4.2 km/h 2.6 mph /  4.2 km/h 57 % 0 in /  0.0 mm
16:56 71.8 °F /  22.1 °C 56.1 °F /  13.4 °C 30.1 in /  1019.9 hPa ENE 3.5 mph /  5.6 km/h 3.5 mph /  5.6 km/h 58 % 0 in /  0.0 mm
17:01 70.9 °F /  21.6 °C 56.8 °F /  13.8 °C 30.1 in /  1019.9 hPa North 2.3 mph /  3.7 km/h 2.3 mph /  3.7 km/h 61 % 0 in /  0.0 mm
17:06 70.2 °F /  21.2 °C 56.5 °F /  13.6 °C 30.1 in /  1019.9 hPa NNE 2.3 mph /  3.7 km/h 2.3 mph /  3.7 km/h 62 % 0 in /  0.0 mm
17:11 69.6 °F /  20.9 °C 56.5 °F /  13.6 °C 30.1 in /  1019.9 hPa NE 2.3 mph /  3.7 km/h 2.3 mph /  3.7 km/h 63 % 0 in /  0.0 mm
17:16 69.1 °F /  20.6 °C 56.8 °F /  13.8 °C 30.1 in /  1019.9 hPa NE 2.3 mph /  3.7 km/h 2.3 mph /  3.7 km/h 65 % 0 in /  0.0 mm
17:21 68.4 °F /  20.2 °C 57 °F /  13.9 °C 30.1 in /  1019.9 hPa ENE 4.6 mph /  7.4 km/h 4.6 mph /  7.4 km/h 67 % 0 in /  0.0 mm
17:26 68 °F /  20.0 °C 57 °F /  13.9 °C 30.1 in /  1019.9 hPa North 1.2 mph /  1.9 km/h 1.2 mph /  1.9 km/h 68 % 0 in /  0.0 mm
17:31 67.8 °F /  19.9 °C 57.7 °F /  14.3 °C 30.1 in /  1019.9 hPa NNW 1.2 mph /  1.9 km/h   70 % 0 in /  0.0 mm
17:36 67.1 °F /  19.5 °C 57.7 °F /  14.3 °C 30.1 in /  1019.9 hPa ENE 2.3 mph /  3.7 km/h 2.3 mph /  3.7 km/h 72 % 0 in /  0.0 mm
17:41 66.6 °F /  19.2 °C 57.6 °F /  14.2 °C 30.1 in /  1019.9 hPa NNE 2.4 mph /  3.9 km/h 2.4 mph /  3.9 km/h 73 % 0 in /  0.0 mm
17:46 66.6 °F /  19.2 °C 57.9 °F /  14.4 °C 30.1 in /  1019.9 hPa NNE 2.2 mph /  3.5 km/h 2.2 mph /  3.5 km/h 74 % 0 in /  0.0 mm
17:51 66 °F /  18.9 °C 57.9 °F /  14.4 °C 30.1 in /  1019.9 hPa NE 2.3 mph /  3.7 km/h   75 % 0 in /  0.0 mm
17:56 66.4 °F /  19.1 °C 57.7 °F /  14.3 °C 30.1 in /  1019.9 hPa WSW 2.3 mph /  3.7 km/h 2.3 mph /  3.7 km/h 74 % 0 in /  0.0 mm
18:01 66.2 °F /  19.0 °C 57.9 °F /  14.4 °C 30.1 in /  1019.9 hPa SW 2.3 mph /  3.7 km/h 2.3 mph /  3.7 km/h 75 % 0 in /  0.0 mm
18:06 66.2 °F /  19.0 °C 58.5 °F /  14.7 °C 30.1 in /  1019.9 hPa NNW 1.4 mph /  2.3 km/h   76 % 0 in /  0.0 mm
18:11 65.8 °F /  18.8 °C 57.7 °F /  14.3 °C 30.1 in /  1019.9 hPa NE 2.2 mph /  3.5 km/h 2.2 mph /  3.5 km/h 75 % 0 in /  0.0 mm
18:16 65.8 °F /  18.8 °C 58.5 °F /  14.7 °C 30.1 in /  1019.9 hPa NE 3.5 mph /  5.6 km/h 3.5 mph /  5.6 km/h 77 % 0 in /  0.0 mm
18:21 65.7 °F /  18.7 °C 57.9 °F /  14.4 °C 30.1 in /  1019.9 hPa NNE 2.3 mph /  3.7 km/h 2.3 mph /  3.7 km/h 76 % 0 in /  0.0 mm
18:26 65.8 °F /  18.8 °C 58.1 °F /  14.5 °C 30.1 in /  1019.9 hPa Calm     76 % 0 in /  0.0 mm
18:31 65.7 °F /  18.7 °C 57.9 °F /  14.4 °C 30.1 in /  1019.9 hPa ENE 2.3 mph /  3.7 km/h   76 % 0 in /  0.0 mm
18:36 65.8 °F /  18.8 °C 58.5 °F /  14.7 °C 30.1 in /  1019.9 hPa Calm     77 % 0 in /  0.0 mm
18:41 65.8 °F /  18.8 °C 58.5 °F /  14.7 °C 30.1 in /  1019.9 hPa Calm     77 % 0 in /  0.0 mm
18:46 65.8 °F /  18.8 °C 58.5 °F /  14.7 °C 30.1 in /  1019.9 hPa NNE 2 mph /  3.2 km/h 2 mph /  3.2 km/h 77 % 0 in /  0.0 mm
18:51 65.8 °F /  18.8 °C 58.8 °F /  14.9 °C 30.1 in /  1019.9 hPa NNE 2.3 mph /  3.7 km/h 2.3 mph /  3.7 km/h 78 % 0 in /  0.0 mm
18:56 65.7 °F /  18.7 °C 58.3 °F /  14.6 °C 30.1 in /  1019.9 hPa NE 2.4 mph /  3.9 km/h   77 % 0 in /  0.0 mm
19:01 65.5 °F /  18.6 °C 58.1 °F /  14.5 °C 30.1 in /  1019.9 hPa NE 2.3 mph /  3.7 km/h 2.3 mph /  3.7 km/h 77 % 0 in /  0.0 mm
19:06 65.5 °F /  18.6 °C 58.1 °F /  14.5 °C 30.1 in /  1019.9 hPa NNE 2.3 mph /  3.7 km/h 2.3 mph /  3.7 km/h 77 % 0 in /  0.0 mm
19:11 65.5 °F /  18.6 °C 58.1 °F /  14.5 °C 30.1 in /  1019.9 hPa NE 2.3 mph /  3.7 km/h 2.3 mph /  3.7 km/h 77 % 0 in /  0.0 mm
19:16 65.3 °F /  18.5 °C 57.6 °F /  14.2 °C 30.1 in /  1019.9 hPa NNE 3.5 mph /  5.6 km/h 3.5 mph /  5.6 km/h 76 % 0 in /  0.0 mm
19:21 65.1 °F /  18.4 °C 57.4 °F /  14.1 °C 30.1 in /  1019.9 hPa WNW 2.3 mph /  3.7 km/h 2.9 mph /  4.7 km/h 76 % 0 in /  0.0 mm
19:26 65.1 °F /  18.4 °C 57.4 °F /  14.1 °C 30.1 in /  1019.9 hPa ENE 2.3 mph /  3.7 km/h 2.3 mph /  3.7 km/h 76 % 0 in /  0.0 mm
19:31 64.9 °F /  18.3 °C 57.2 °F /  14.0 °C 30.1 in /  1019.9 hPa NW 2.3 mph /  3.7 km/h 2.3 mph /  3.7 km/h 76 % 0 in /  0.0 mm
19:36 64.9 °F /  18.3 °C 56.8 °F /  13.8 °C 30.1 in /  1019.9 hPa WNW 1.2 mph /  1.9 km/h   75 % 0 in /  0.0 mm
19:41 65.1 °F /  18.4 °C 57.4 °F /  14.1 °C 30.1 in /  1019.9 hPa WSW 1.2 mph /  1.9 km/h 1.2 mph /  1.9 km/h 76 % 0 in /  0.0 mm
19:46 64.8 °F /  18.2 °C 57 °F /  13.9 °C 30.1 in /  1019.9 hPa WSW 1.2 mph /  1.9 km/h   76 % 0 in /  0.0 mm
19:51 64.8 °F /  18.2 °C 57 °F /  13.9 °C 30.1 in /  1019.9 hPa Calm     76 % 0 in /  0.0 mm
19:53 64.6 °F /  18.1 °C 56.8 °F /  13.8 °C 30.1 in /  1019.9 hPa Calm     76 % 0 in /  0.0 mm
19:58 64.4 °F /  18.0 °C 56.7 °F /  13.7 °C 30.1 in /  1019.9 hPa Calm     76 % 0 in /  0.0 mm
20:03 64.4 °F /  18.0 °C 56.7 °F /  13.7 °C 30.1 in /  1019.9 hPa West 2.3 mph /  3.7 km/h   76 % 0 in /  0.0 mm
20:08 64.4 °F /  18.0 °C 57 °F /  13.9 °C 30.1 in /  1019.9 hPa West 1.2 mph /  1.9 km/h 1.2 mph /  1.9 km/h 77 % 0 in /  0.0 mm
20:13 64.2 °F /  17.9 °C 56.8 °F /  13.8 °C 30.1 in /  1019.9 hPa Calm     77 % 0 in /  0.0 mm
20:18 64 °F /  17.8 °C 56.7 °F /  13.7 °C 30.1 in /  1019.9 hPa Calm     77 % 0 in /  0.0 mm
20:23 64 °F /  17.8 °C 57 °F /  13.9 °C 30.1 in /  1019.9 hPa NE 1.2 mph /  1.9 km/h 1.2 mph /  1.9 km/h 78 % 0 in /  0.0 mm
20:28 63.9 °F /  17.7 °C 56.8 °F /  13.8 °C 30.1 in /  1019.9 hPa Calm     78 % 0 in /  0.0 mm
20:33 63.9 °F /  17.7 °C 56.8 °F /  13.8 °C 30.1 in /  1019.9 hPa WNW 1.2 mph /  1.9 km/h 1.2 mph /  1.9 km/h 78 % 0 in /  0.0 mm
20:38 64 °F /  17.8 °C 57 °F /  13.9 °C 30.1 in /  1019.9 hPa WNW 2.3 mph /  3.7 km/h 2.3 mph /  3.7 km/h 78 % 0 in /  0.0 mm
20:48 63.9 °F /  17.7 °C 57.2 °F /  14.0 °C 30.2 in /  1020.9 hPa West 3.5 mph /  5.6 km/h 3.5 mph /  5.6 km/h 79 % 0 in /  0.0 mm
20:53 63.9 °F /  17.7 °C 57.2 °F /  14.0 °C 30.2 in /  1020.9 hPa WSW 2.3 mph /  3.7 km/h 2.3 mph /  3.7 km/h 79 % 0 in /  0.0 mm
20:58 63.9 °F /  17.7 °C 57.6 °F /  14.2 °C 30.2 in /  1020.9 hPa WSW 2.3 mph /  3.7 km/h 2.3 mph /  3.7 km/h 80 % 0 in /  0.0 mm
21:03 63.7 °F /  17.6 °C 57.4 °F /  14.1 °C 30.2 in /  1020.9 hPa Calm     80 % 0 in /  0.0 mm
21:08 63.7 °F /  17.6 °C 57.7 °F /  14.3 °C 30.2 in /  1020.9 hPa ESE 2.3 mph /  3.7 km/h 2.3 mph /  3.7 km/h 81 % 0 in /  0.0 mm
21:13 63.5 °F /  17.5 °C 57.9 °F /  14.4 °C 30.2 in /  1020.9 hPa East 2.3 mph /  3.7 km/h 2.3 mph /  3.7 km/h 82 % 0 in /  0.0 mm
21:18 63.1 °F /  17.3 °C 57.6 °F /  14.2 °C 30.2 in /  1020.9 hPa ENE 1.2 mph /  1.9 km/h   82 % 0 in /  0.0 mm
21:23 63.1 °F /  17.3 °C 57.6 °F /  14.2 °C 30.2 in /  1020.9 hPa East 1.2 mph /  1.9 km/h   82 % 0 in /  0.0 mm
21:28 63 °F /  17.2 °C 57.4 °F /  14.1 °C 30.2 in /  1020.9 hPa Calm     82 % 0 in /  0.0 mm
21:33 63 °F /  17.2 °C 57.4 °F /  14.1 °C 30.2 in /  1021.9 hPa Calm     82 % 0 in /  0.0 mm
21:38 63 °F /  17.2 °C 57.4 °F /  14.1 °C 30.2 in /  1021.9 hPa Calm     82 % 0 in /  0.0 mm
21:43 63 °F /  17.2 °C 57.4 °F /  14.1 °C 30.2 in /  1021.9 hPa Calm     82 % 0 in /  0.0 mm
21:48 63 °F /  17.2 °C 57.7 °F /  14.3 °C 30.2 in /  1021.9 hPa Calm     83 % 0 in /  0.0 mm
21:53 62.8 °F /  17.1 °C 57.6 °F /  14.2 °C 30.2 in /  1021.9 hPa Calm     83 % 0 in /  0.0 mm
21:58 62.8 °F /  17.1 °C 57.6 °F /  14.2 °C 30.2 in /  1021.9 hPa Calm     83 % 0 in /  0.0 mm
22:03 62.8 °F /  17.1 °C 57.9 °F /  14.4 °C 30.2 in /  1021.9 hPa Calm     84 % 0 in /  0.0 mm
22:08 62.8 °F /  17.1 °C 57.9 °F /  14.4 °C 30.2 in /  1021.9 hPa NNE 1.2 mph /  1.9 km/h   84 % 0 in /  0.0 mm
22:13 62.6 °F /  17.0 °C 57.7 °F /  14.3 °C 30.2 in /  1021.9 hPa Calm     84 % 0 in /  0.0 mm
22:18 62.6 °F /  17.0 °C 57.7 °F /  14.3 °C 30.2 in /  1021.9 hPa Calm     84 % 0 in /  0.0 mm
22:23 62.6 °F /  17.0 °C 57.7 °F /  14.3 °C 30.2 in /  1021.9 hPa Calm     84 % 0 in /  0.0 mm
22:28 62.6 °F /  17.0 °C 57.7 °F /  14.3 °C 30.2 in /  1021.9 hPa WSW 1.2 mph /  1.9 km/h   84 % 0 in /  0.0 mm
22:33 62.6 °F /  17.0 °C 57.7 °F /  14.3 °C 30.2 in /  1021.9 hPa Calm     84 % 0 in /  0.0 mm
22:38 62.4 °F /  16.9 °C 57.7 °F /  14.3 °C 30.2 in /  1021.9 hPa Calm     85 % 0 in /  0.0 mm
22:43 62.4 °F /  16.9 °C 57.7 °F /  14.3 °C 30.2 in /  1021.9 hPa Calm     85 % 0 in /  0.0 mm
22:48 62.2 °F /  16.8 °C 57.7 °F /  14.3 °C 30.2 in /  1021.9 hPa Calm     85 % 0 in /  0.0 mm
22:53 62.4 °F /  16.9 °C 57.7 °F /  14.3 °C 30.2 in /  1021.9 hPa Calm     85 % 0 in /  0.0 mm
22:58 62.4 °F /  16.9 °C 57.7 °F /  14.3 °C 30.2 in /  1021.9 hPa Calm     85 % 0 in /  0.0 mm
23:03 62.6 °F /  17.0 °C 57.9 °F /  14.4 °C 30.2 in /  1021.9 hPa ENE 2.3 mph /  3.7 km/h 2.3 mph /  3.7 km/h 85 % 0 in /  0.0 mm
23:08 62.4 °F /  16.9 °C 57.7 °F /  14.3 °C 30.2 in /  1021.9 hPa ENE 1.2 mph /  1.9 km/h 1.2 mph /  1.9 km/h 85 % 0 in /  0.0 mm
23:13 62.4 °F /  16.9 °C 57.6 °F /  14.2 °C 30.2 in /  1021.9 hPa ENE 2.3 mph /  3.7 km/h 2.3 mph /  3.7 km/h 84 % 0 in /  0.0 mm
23:18 62.4 °F /  16.9 °C 57.6 °F /  14.2 °C 30.2 in /  1021.9 hPa Calm     84 % 0 in /  0.0 mm
23:23 62.6 °F /  17.0 °C 57.7 °F /  14.3 °C 30.2 in /  1021.9 hPa NNW 1.2 mph /  1.9 km/h 1.2 mph /  1.9 km/h 84 % 0 in /  0.0 mm
23:28 62.6 °F /  17.0 °C 57.4 °F /  14.1 °C 30.2 in /  1021.9 hPa ENE 2.3 mph /  3.7 km/h 2.3 mph /  3.7 km/h 83 % 0 in /  0.0 mm
23:33 62.6 °F /  17.0 °C 57 °F /  13.9 °C 30.2 in /  1021.9 hPa ENE 1.2 mph /  1.9 km/h   82 % 0 in /  0.0 mm
23:38 62.6 °F /  17.0 °C 57 °F /  13.9 °C 30.2 in /  1021.9 hPa NE 2.3 mph /  3.7 km/h 2.3 mph /  3.7 km/h 82 % 0 in /  0.0 mm
23:43 62.6 °F /  17.0 °C 56.7 °F /  13.7 °C 30.2 in /  1021.9 hPa NNE 2.3 mph /  3.7 km/h 2.3 mph /  3.7 km/h 81 % 0 in /  0.0 mm
23:48 62.6 °F /  17.0 °C 56.7 °F /  13.7 °C 30.2 in /  1021.9 hPa ENE 2.3 mph /  3.7 km/h 2.3 mph /  3.7 km/h 81 % 0 in /  0.0 mm
23:53 62.6 °F /  17.0 °C 56.3 °F /  13.5 °C 30.2 in /  1021.9 hPa NNW 2.2 mph /  3.5 km/h 2.2 mph /  3.5 km/h 80 % 0 in /  0.0 mm
23:58 62.4 °F /  16.9 °C 56.5 °F /  13.6 °C 30.2 in /  1021.9 hPa Calm     81 % 0 in /  0.0 mm
Meteo Sesrovires
Elogis d' Weather Underground - 3.5 mb

Guio original per  Jim McMurry - jmcmurry@mwt.net Adaptat per a la plantilla per  Wim van der Kuil - Leuven-Template.eu

Trobareu la nostra informacio del temps tambe a:

Weather Underground

AWEKAS